sensor_id;sensor_type;location;lat;lon;timestamp;temperature;humidity
15409;DHT22;7803;48.130;13.788;2023-06-24T00:02:49;25.90;84.80
15409;DHT22;7803;48.130;13.788;2023-06-24T00:05:53;25.90;84.90
15409;DHT22;7803;48.130;13.788;2023-06-24T00:08:57;25.90;85.20
15409;DHT22;7803;48.130;13.788;2023-06-24T00:12:02;25.90;85.40
15409;DHT22;7803;48.130;13.788;2023-06-24T00:15:05;25.90;85.50
15409;DHT22;7803;48.130;13.788;2023-06-24T00:18:08;25.90;85.50
15409;DHT22;7803;48.130;13.788;2023-06-24T00:21:11;25.90;85.10
15409;DHT22;7803;48.130;13.788;2023-06-24T00:24:13;25.90;85.10
15409;DHT22;7803;48.130;13.788;2023-06-24T00:27:15;25.90;85.10
15409;DHT22;7803;48.130;13.788;2023-06-24T00:30:17;25.90;85.10
15409;DHT22;7803;48.130;13.788;2023-06-24T00:33:19;25.90;85.10
15409;DHT22;7803;48.130;13.788;2023-06-24T00:36:23;25.80;85.00
15409;DHT22;7803;48.130;13.788;2023-06-24T00:39:25;25.90;85.10
15409;DHT22;7803;48.130;13.788;2023-06-24T00:42:27;25.90;85.20
15409;DHT22;7803;48.130;13.788;2023-06-24T00:45:29;25.90;85.20
15409;DHT22;7803;48.130;13.788;2023-06-24T00:48:31;25.80;85.30
15409;DHT22;7803;48.130;13.788;2023-06-24T00:51:35;25.80;85.40
15409;DHT22;7803;48.130;13.788;2023-06-24T00:54:37;25.80;85.40
15409;DHT22;7803;48.130;13.788;2023-06-24T00:57:39;25.80;85.40
15409;DHT22;7803;48.130;13.788;2023-06-24T01:00:42;25.80;85.50
15409;DHT22;7803;48.130;13.788;2023-06-24T01:03:44;25.80;85.40
15409;DHT22;7803;48.130;13.788;2023-06-24T01:06:48;25.80;85.40
15409;DHT22;7803;48.130;13.788;2023-06-24T01:09:51;25.80;85.50
15409;DHT22;7803;48.130;13.788;2023-06-24T01:12:53;25.80;85.50
15409;DHT22;7803;48.130;13.788;2023-06-24T01:15:55;25.80;85.50
15409;DHT22;7803;48.130;13.788;2023-06-24T01:19:04;25.80;85.50
15409;DHT22;7803;48.130;13.788;2023-06-24T01:22:23;25.90;85.70
15409;DHT22;7803;48.130;13.788;2023-06-24T01:25:44;25.80;85.60
15409;DHT22;7803;48.130;13.788;2023-06-24T01:32:39;25.80;85.60
15409;DHT22;7803;48.130;13.788;2023-06-24T01:35:47;25.80;85.70
15409;DHT22;7803;48.130;13.788;2023-06-24T01:38:52;25.80;85.70
15409;DHT22;7803;48.130;13.788;2023-06-24T01:42:00;25.80;85.80
15409;DHT22;7803;48.130;13.788;2023-06-24T01:45:04;25.80;85.80
15409;DHT22;7803;48.130;13.788;2023-06-24T01:48:13;25.80;85.90
15409;DHT22;7803;48.130;13.788;2023-06-24T01:51:19;25.80;85.80
15409;DHT22;7803;48.130;13.788;2023-06-24T01:54:22;25.80;85.90
15409;DHT22;7803;48.130;13.788;2023-06-24T01:57:26;25.80;85.90
15409;DHT22;7803;48.130;13.788;2023-06-24T02:00:29;25.80;85.70
15409;DHT22;7803;48.130;13.788;2023-06-24T02:03:33;25.80;85.70
15409;DHT22;7803;48.130;13.788;2023-06-24T02:06:37;25.80;85.70
15409;DHT22;7803;48.130;13.788;2023-06-24T02:09:41;25.80;85.70
15409;DHT22;7803;48.130;13.788;2023-06-24T02:12:47;25.80;85.80
15409;DHT22;7803;48.130;13.788;2023-06-24T02:15:50;25.80;85.90
15409;DHT22;7803;48.130;13.788;2023-06-24T02:18:56;25.80;85.90
15409;DHT22;7803;48.130;13.788;2023-06-24T02:21:59;25.80;85.90
15409;DHT22;7803;48.130;13.788;2023-06-24T02:25:01;25.80;85.90
15409;DHT22;7803;48.130;13.788;2023-06-24T02:28:04;25.80;85.90
15409;DHT22;7803;48.130;13.788;2023-06-24T02:31:08;25.80;86.00
15409;DHT22;7803;48.130;13.788;2023-06-24T02:34:12;25.80;86.10
15409;DHT22;7803;48.130;13.788;2023-06-24T02:37:14;25.80;86.10
15409;DHT22;7803;48.130;13.788;2023-06-24T02:40:16;25.80;87.00
15409;DHT22;7803;48.130;13.788;2023-06-24T02:43:18;25.80;86.10
15409;DHT22;7803;48.130;13.788;2023-06-24T02:46:21;25.80;86.10
15409;DHT22;7803;48.130;13.788;2023-06-24T02:49:25;25.80;86.00
15409;DHT22;7803;48.130;13.788;2023-06-24T02:52:28;25.80;86.00
15409;DHT22;7803;48.130;13.788;2023-06-24T02:55:30;25.80;86.00
15409;DHT22;7803;48.130;13.788;2023-06-24T02:58:34;25.80;86.00
15409;DHT22;7803;48.130;13.788;2023-06-24T03:01:39;25.80;85.90
15409;DHT22;7803;48.130;13.788;2023-06-24T03:04:47;25.80;85.90
15409;DHT22;7803;48.130;13.788;2023-06-24T03:07:50;25.80;86.00
15409;DHT22;7803;48.130;13.788;2023-06-24T03:10:55;25.80;86.10
15409;DHT22;7803;48.130;13.788;2023-06-24T03:13:57;25.80;86.10
15409;DHT22;7803;48.130;13.788;2023-06-24T03:16:59;25.70;86.00
15409;DHT22;7803;48.130;13.788;2023-06-24T03:20:03;25.80;86.00
15409;DHT22;7803;48.130;13.788;2023-06-24T03:23:08;25.70;85.90
15409;DHT22;7803;48.130;13.788;2023-06-24T03:26:10;25.70;85.90
15409;DHT22;7803;48.130;13.788;2023-06-24T03:29:12;25.70;86.00
15409;DHT22;7803;48.130;13.788;2023-06-24T03:32:14;25.80;86.10
15409;DHT22;7803;48.130;13.788;2023-06-24T03:35:18;25.70;86.10
15409;DHT22;7803;48.130;13.788;2023-06-24T03:38:20;25.70;86.00
15409;DHT22;7803;48.130;13.788;2023-06-24T03:41:22;25.70;86.00
15409;DHT22;7803;48.130;13.788;2023-06-24T03:44:26;25.70;85.90
15409;DHT22;7803;48.130;13.788;2023-06-24T03:47:29;25.70;85.90
15409;DHT22;7803;48.130;13.788;2023-06-24T03:50:32;25.70;86.10
15409;DHT22;7803;48.130;13.788;2023-06-24T03:53:34;25.70;85.90
15409;DHT22;7803;48.130;13.788;2023-06-24T03:56:36;25.70;85.90
15409;DHT22;7803;48.130;13.788;2023-06-24T03:59:38;25.70;85.90
15409;DHT22;7803;48.130;13.788;2023-06-24T04:02:40;25.70;86.00
15409;DHT22;7803;48.130;13.788;2023-06-24T04:05:44;25.70;86.00
15409;DHT22;7803;48.130;13.788;2023-06-24T04:08:46;25.70;86.00
15409;DHT22;7803;48.130;13.788;2023-06-24T04:11:49;25.70;86.10
15409;DHT22;7803;48.130;13.788;2023-06-24T04:14:51;25.70;86.10
15409;DHT22;7803;48.130;13.788;2023-06-24T04:17:53;25.70;86.10
15409;DHT22;7803;48.130;13.788;2023-06-24T04:20:56;25.70;86.10
15409;DHT22;7803;48.130;13.788;2023-06-24T04:23:58;25.70;86.20
15409;DHT22;7803;48.130;13.788;2023-06-24T04:27:00;25.70;86.10
15409;DHT22;7803;48.130;13.788;2023-06-24T04:30:04;25.70;86.10
15409;DHT22;7803;48.130;13.788;2023-06-24T04:33:06;25.70;86.10
15409;DHT22;7803;48.130;13.788;2023-06-24T04:36:09;25.70;86.10
15409;DHT22;7803;48.130;13.788;2023-06-24T04:39:12;25.60;86.00
15409;DHT22;7803;48.130;13.788;2023-06-24T04:42:15;25.60;86.00
15409;DHT22;7803;48.130;13.788;2023-06-24T04:45:16;25.70;86.10
15409;DHT22;7803;48.130;13.788;2023-06-24T04:48:18;25.70;86.10
15409;DHT22;7803;48.130;13.788;2023-06-24T04:51:22;25.70;86.10
15409;DHT22;7803;48.130;13.788;2023-06-24T04:54:24;25.60;86.10
15409;DHT22;7803;48.130;13.788;2023-06-24T04:57:27;25.60;86.10
15409;DHT22;7803;48.130;13.788;2023-06-24T05:00:30;25.60;86.00
15409;DHT22;7803;48.130;13.788;2023-06-24T05:03:32;25.70;86.10
15409;DHT22;7803;48.130;13.788;2023-06-24T05:06:35;25.60;86.00
15409;DHT22;7803;48.130;13.788;2023-06-24T05:09:37;25.60;86.10
15409;DHT22;7803;48.130;13.788;2023-06-24T05:12:39;25.60;86.10
15409;DHT22;7803;48.130;13.788;2023-06-24T05:15:41;25.60;86.10
15409;DHT22;7803;48.130;13.788;2023-06-24T05:18:44;25.60;86.10
15409;DHT22;7803;48.130;13.788;2023-06-24T05:21:47;25.60;86.10
15409;DHT22;7803;48.130;13.788;2023-06-24T05:24:49;25.60;86.10
15409;DHT22;7803;48.130;13.788;2023-06-24T05:27:51;25.70;86.10
15409;DHT22;7803;48.130;13.788;2023-06-24T05:30:53;25.60;86.00
15409;DHT22;7803;48.130;13.788;2023-06-24T05:33:55;25.60;86.00
15409;DHT22;7803;48.130;13.788;2023-06-24T05:36:58;25.60;86.00
15409;DHT22;7803;48.130;13.788;2023-06-24T05:40:01;25.60;85.90
15409;DHT22;7803;48.130;13.788;2023-06-24T05:43:05;25.60;86.00
15409;DHT22;7803;48.130;13.788;2023-06-24T05:46:07;25.60;86.00
15409;DHT22;7803;48.130;13.788;2023-06-24T05:49:09;25.60;86.00
15409;DHT22;7803;48.130;13.788;2023-06-24T05:52:13;25.60;85.90
15409;DHT22;7803;48.130;13.788;2023-06-24T05:55:15;25.60;86.00
15409;DHT22;7803;48.130;13.788;2023-06-24T05:58:17;25.60;86.00
15409;DHT22;7803;48.130;13.788;2023-06-24T06:01:19;25.60;86.00
15409;DHT22;7803;48.130;13.788;2023-06-24T06:04:21;25.60;86.00
15409;DHT22;7803;48.130;13.788;2023-06-24T06:07:25;25.60;86.10
15409;DHT22;7803;48.130;13.788;2023-06-24T06:10:27;25.60;86.10
15409;DHT22;7803;48.130;13.788;2023-06-24T06:13:29;25.60;86.20
15409;DHT22;7803;48.130;13.788;2023-06-24T06:16:31;25.50;86.10
15409;DHT22;7803;48.130;13.788;2023-06-24T06:19:33;25.50;86.30
15409;DHT22;7803;48.130;13.788;2023-06-24T06:22:36;25.50;86.20
15409;DHT22;7803;48.130;13.788;2023-06-24T06:25:39;25.60;86.30
15409;DHT22;7803;48.130;13.788;2023-06-24T06:28:41;25.50;86.30
15409;DHT22;7803;48.130;13.788;2023-06-24T06:31:43;25.50;86.30
15409;DHT22;7803;48.130;13.788;2023-06-24T06:34:44;25.60;86.50
15409;DHT22;7803;48.130;13.788;2023-06-24T06:37:48;25.60;86.50
15409;DHT22;7803;48.130;13.788;2023-06-24T06:40:53;25.50;86.40
15409;DHT22;7803;48.130;13.788;2023-06-24T06:43:55;25.50;86.50
15409;DHT22;7803;48.130;13.788;2023-06-24T06:46:57;25.50;86.40
15409;DHT22;7803;48.130;13.788;2023-06-24T06:49:59;25.50;86.50
15409;DHT22;7803;48.130;13.788;2023-06-24T06:53:02;25.50;86.60
15409;DHT22;7803;48.130;13.788;2023-06-24T06:56:04;25.50;86.60
15409;DHT22;7803;48.130;13.788;2023-06-24T06:59:06;25.50;86.60
15409;DHT22;7803;48.130;13.788;2023-06-24T07:02:08;25.50;86.60
15409;DHT22;7803;48.130;13.788;2023-06-24T07:05:10;25.50;86.70
15409;DHT22;7803;48.130;13.788;2023-06-24T07:08:14;25.50;86.60
15409;DHT22;7803;48.130;13.788;2023-06-24T07:11:16;25.50;86.60
15409;DHT22;7803;48.130;13.788;2023-06-24T07:14:18;25.50;86.60
15409;DHT22;7803;48.130;13.788;2023-06-24T07:17:20;25.50;86.70
15409;DHT22;7803;48.130;13.788;2023-06-24T07:20:22;25.50;86.70
15409;DHT22;7803;48.130;13.788;2023-06-24T07:23:25;25.50;86.70
15409;DHT22;7803;48.130;13.788;2023-06-24T07:26:27;25.50;86.80
15409;DHT22;7803;48.130;13.788;2023-06-24T07:29:30;25.50;86.80
15409;DHT22;7803;48.130;13.788;2023-06-24T07:32:32;25.50;86.90
15409;DHT22;7803;48.130;13.788;2023-06-24T07:35:34;25.50;86.80
15409;DHT22;7803;48.130;13.788;2023-06-24T07:38:38;25.50;86.80
15409;DHT22;7803;48.130;13.788;2023-06-24T07:41:39;25.50;87.00
15409;DHT22;7803;48.130;13.788;2023-06-24T07:44:43;25.50;87.10
15409;DHT22;7803;48.130;13.788;2023-06-24T07:47:45;25.50;87.00
15409;DHT22;7803;48.130;13.788;2023-06-24T07:50:47;25.50;87.10
15409;DHT22;7803;48.130;13.788;2023-06-24T07:53:51;25.50;87.20
15409;DHT22;7803;48.130;13.788;2023-06-24T07:56:53;25.50;87.20
15409;DHT22;7803;48.130;13.788;2023-06-24T07:59:55;25.50;87.30
15409;DHT22;7803;48.130;13.788;2023-06-24T08:02:57;25.50;87.30
15409;DHT22;7803;48.130;13.788;2023-06-24T08:05:59;25.50;87.40
15409;DHT22;7803;48.130;13.788;2023-06-24T08:09:03;25.50;87.40
15409;DHT22;7803;48.130;13.788;2023-06-24T08:12:05;25.50;87.40
15409;DHT22;7803;48.130;13.788;2023-06-24T08:15:08;25.50;87.50
15409;DHT22;7803;48.130;13.788;2023-06-24T08:18:10;25.50;87.60
15409;DHT22;7803;48.130;13.788;2023-06-24T08:21:12;25.50;88.30
15409;DHT22;7803;48.130;13.788;2023-06-24T08:24:15;25.50;88.90
15409;DHT22;7803;48.130;13.788;2023-06-24T08:27:17;25.40;89.40
15409;DHT22;7803;48.130;13.788;2023-06-24T08:30:20;25.50;90.00
15409;DHT22;7803;48.130;13.788;2023-06-24T08:33:22;25.50;90.10
15409;DHT22;7803;48.130;13.788;2023-06-24T08:36:25;25.50;90.50
15409;DHT22;7803;48.130;13.788;2023-06-24T08:39:28;25.50;90.90
15409;DHT22;7803;48.130;13.788;2023-06-24T08:42:30;25.50;90.90
15409;DHT22;7803;48.130;13.788;2023-06-24T08:45:32;25.50;90.70
15409;DHT22;7803;48.130;13.788;2023-06-24T08:48:35;25.50;90.50
15409;DHT22;7803;48.130;13.788;2023-06-24T08:51:41;25.60;90.40
15409;DHT22;7803;48.130;13.788;2023-06-24T08:54:51;25.50;90.20
15409;DHT22;7803;48.130;13.788;2023-06-24T08:57:53;25.50;90.10
15409;DHT22;7803;48.130;13.788;2023-06-24T09:00:55;25.50;90.10
15409;DHT22;7803;48.130;13.788;2023-06-24T09:03:58;25.50;90.00
15409;DHT22;7803;48.130;13.788;2023-06-24T09:07:00;25.50;89.90
15409;DHT22;7803;48.130;13.788;2023-06-24T09:10:03;25.50;89.80
15409;DHT22;7803;48.130;13.788;2023-06-24T09:13:07;25.50;89.70
15409;DHT22;7803;48.130;13.788;2023-06-24T09:16:12;25.50;89.70
15409;DHT22;7803;48.130;13.788;2023-06-24T09:19:20;25.50;89.80
15409;DHT22;7803;48.130;13.788;2023-06-24T09:22:22;25.50;89.80
15409;DHT22;7803;48.130;13.788;2023-06-24T09:25:26;25.50;89.70
15409;DHT22;7803;48.130;13.788;2023-06-24T09:28:28;25.50;89.80
15409;DHT22;7803;48.130;13.788;2023-06-24T09:31:30;25.50;89.90
15409;DHT22;7803;48.130;13.788;2023-06-24T09:34:33;25.50;89.70
15409;DHT22;7803;48.130;13.788;2023-06-24T09:37:35;25.50;89.70
15409;DHT22;7803;48.130;13.788;2023-06-24T09:40:39;25.50;90.00
15409;DHT22;7803;48.130;13.788;2023-06-24T09:43:43;25.50;89.70
15409;DHT22;7803;48.130;13.788;2023-06-24T09:46:46;25.50;89.70
15409;DHT22;7803;48.130;13.788;2023-06-24T09:49:48;25.50;89.70
15409;DHT22;7803;48.130;13.788;2023-06-24T09:52:50;25.60;89.70
15409;DHT22;7803;48.130;13.788;2023-06-24T09:55:55;25.50;89.70
15409;DHT22;7803;48.130;13.788;2023-06-24T09:58:57;25.50;89.70
15409;DHT22;7803;48.130;13.788;2023-06-24T10:02:00;25.50;89.60
15409;DHT22;7803;48.130;13.788;2023-06-24T10:05:04;25.50;89.50
15409;DHT22;7803;48.130;13.788;2023-06-24T10:08:06;25.50;89.60
15409;DHT22;7803;48.130;13.788;2023-06-24T10:11:11;25.50;89.50
15409;DHT22;7803;48.130;13.788;2023-06-24T10:14:14;25.50;90.20
15409;DHT22;7803;48.130;13.788;2023-06-24T10:17:17;25.50;90.50
15409;DHT22;7803;48.130;13.788;2023-06-24T10:20:24;25.50;90.80
15409;DHT22;7803;48.130;13.788;2023-06-24T10:23:30;25.50;90.80
15409;DHT22;7803;48.130;13.788;2023-06-24T10:26:36;25.50;90.80
15409;DHT22;7803;48.130;13.788;2023-06-24T10:29:38;25.60;90.60
15409;DHT22;7803;48.130;13.788;2023-06-24T10:32:41;25.60;90.60
15409;DHT22;7803;48.130;13.788;2023-06-24T10:35:44;25.60;90.50
15409;DHT22;7803;48.130;13.788;2023-06-24T10:38:55;25.60;90.40
15409;DHT22;7803;48.130;13.788;2023-06-24T10:42:28;25.60;90.40
15409;DHT22;7803;48.130;13.788;2023-06-24T10:45:30;25.60;90.40
15409;DHT22;7803;48.130;13.788;2023-06-24T10:48:32;25.60;90.30
15409;DHT22;7803;48.130;13.788;2023-06-24T10:51:34;25.60;90.30
15409;DHT22;7803;48.130;13.788;2023-06-24T10:54:37;25.50;90.30
15409;DHT22;7803;48.130;13.788;2023-06-24T10:57:40;25.50;90.10
15409;DHT22;7803;48.130;13.788;2023-06-24T11:00:43;25.60;90.10
15409;DHT22;7803;48.130;13.788;2023-06-24T11:03:47;25.50;90.10
15409;DHT22;7803;48.130;13.788;2023-06-24T11:06:57;25.50;90.00
15409;DHT22;7803;48.130;13.788;2023-06-24T11:10:02;25.50;90.30
15409;DHT22;7803;48.130;13.788;2023-06-24T11:13:06;25.50;89.80
15409;DHT22;7803;48.130;13.788;2023-06-24T11:16:08;25.50;89.50
15409;DHT22;7803;48.130;13.788;2023-06-24T11:19:10;25.50;89.40
15409;DHT22;7803;48.130;13.788;2023-06-24T11:22:12;25.50;89.20
15409;DHT22;7803;48.130;13.788;2023-06-24T11:25:15;25.50;89.20
15409;DHT22;7803;48.130;13.788;2023-06-24T11:28:19;25.50;89.30
15409;DHT22;7803;48.130;13.788;2023-06-24T11:31:25;25.50;89.30
15409;DHT22;7803;48.130;13.788;2023-06-24T11:34:27;25.50;89.10
15409;DHT22;7803;48.130;13.788;2023-06-24T11:37:31;25.50;88.70
15409;DHT22;7803;48.130;13.788;2023-06-24T11:40:34;25.50;89.90
15409;DHT22;7803;48.130;13.788;2023-06-24T11:43:37;25.50;89.70
15409;DHT22;7803;48.130;13.788;2023-06-24T11:46:40;25.50;89.40
15409;DHT22;7803;48.130;13.788;2023-06-24T11:49:49;25.50;89.90
15409;DHT22;7803;48.130;13.788;2023-06-24T11:52:51;25.50;90.00
15409;DHT22;7803;48.130;13.788;2023-06-24T11:55:56;25.50;90.00
15409;DHT22;7803;48.130;13.788;2023-06-24T11:58:59;25.50;89.60
15409;DHT22;7803;48.130;13.788;2023-06-24T12:02:01;25.50;88.80
15409;DHT22;7803;48.130;13.788;2023-06-24T12:05:04;25.50;88.40
15409;DHT22;7803;48.130;13.788;2023-06-24T12:08:07;25.50;88.50
15409;DHT22;7803;48.130;13.788;2023-06-24T12:11:09;25.50;88.50
15409;DHT22;7803;48.130;13.788;2023-06-24T12:14:13;25.50;88.70
15409;DHT22;7803;48.130;13.788;2023-06-24T12:17:15;25.50;88.80
15409;DHT22;7803;48.130;13.788;2023-06-24T12:20:17;25.50;89.10
15409;DHT22;7803;48.130;13.788;2023-06-24T12:23:19;25.50;89.20
15409;DHT22;7803;48.130;13.788;2023-06-24T12:26:21;25.50;89.00
15409;DHT22;7803;48.130;13.788;2023-06-24T12:29:24;25.50;88.50
15409;DHT22;7803;48.130;13.788;2023-06-24T12:32:26;25.50;88.40
15409;DHT22;7803;48.130;13.788;2023-06-24T12:35:28;25.50;88.20
15409;DHT22;7803;48.130;13.788;2023-06-24T12:38:30;25.50;88.10
15409;DHT22;7803;48.130;13.788;2023-06-24T12:41:32;25.50;88.20
15409;DHT22;7803;48.130;13.788;2023-06-24T12:44:36;25.50;88.30
15409;DHT22;7803;48.130;13.788;2023-06-24T12:47:38;25.50;88.50
15409;DHT22;7803;48.130;13.788;2023-06-24T12:50:40;25.50;88.70
15409;DHT22;7803;48.130;13.788;2023-06-24T12:53:42;25.50;89.70
15409;DHT22;7803;48.130;13.788;2023-06-24T12:56:44;25.50;88.90
15409;DHT22;7803;48.130;13.788;2023-06-24T12:59:47;25.50;89.40
15409;DHT22;7803;48.130;13.788;2023-06-24T13:02:50;25.50;89.00
15409;DHT22;7803;48.130;13.788;2023-06-24T13:05:52;25.50;89.10
15409;DHT22;7803;48.130;13.788;2023-06-24T13:08:54;25.50;89.20
15409;DHT22;7803;48.130;13.788;2023-06-24T13:11:56;25.50;89.10
15409;DHT22;7803;48.130;13.788;2023-06-24T13:14:59;25.50;89.00
15409;DHT22;7803;48.130;13.788;2023-06-24T13:18:01;25.50;88.70
15409;DHT22;7803;48.130;13.788;2023-06-24T13:21:03;25.40;88.60
15409;DHT22;7803;48.130;13.788;2023-06-24T13:24:06;25.50;88.60
15409;DHT22;7803;48.130;13.788;2023-06-24T13:27:08;25.50;88.80
15409;DHT22;7803;48.130;13.788;2023-06-24T13:30:13;25.50;88.40
15409;DHT22;7803;48.130;13.788;2023-06-24T13:33:16;25.50;88.50
15409;DHT22;7803;48.130;13.788;2023-06-24T13:36:30;25.50;88.40
15409;DHT22;7803;48.130;13.788;2023-06-24T13:39:33;25.50;88.30
15409;DHT22;7803;48.130;13.788;2023-06-24T13:42:35;25.50;88.20
15409;DHT22;7803;48.130;13.788;2023-06-24T13:45:38;25.50;88.10
15409;DHT22;7803;48.130;13.788;2023-06-24T13:48:40;25.40;88.00
15409;DHT22;7803;48.130;13.788;2023-06-24T13:51:43;25.40;88.20
15409;DHT22;7803;48.130;13.788;2023-06-24T13:54:45;25.50;88.20
15409;DHT22;7803;48.130;13.788;2023-06-24T13:57:47;25.50;88.00
15409;DHT22;7803;48.130;13.788;2023-06-24T14:00:51;25.50;87.80
15409;DHT22;7803;48.130;13.788;2023-06-24T14:03:53;25.50;88.20
15409;DHT22;7803;48.130;13.788;2023-06-24T14:06:56;25.50;88.00
15409;DHT22;7803;48.130;13.788;2023-06-24T14:09:58;25.50;88.20
15409;DHT22;7803;48.130;13.788;2023-06-24T14:13:00;25.40;88.40
15409;DHT22;7803;48.130;13.788;2023-06-24T14:16:04;25.40;88.30
15409;DHT22;7803;48.130;13.788;2023-06-24T14:19:06;25.40;88.10
15409;DHT22;7803;48.130;13.788;2023-06-24T14:22:08;25.40;88.30
15409;DHT22;7803;48.130;13.788;2023-06-24T14:25:10;25.40;88.40
15409;DHT22;7803;48.130;13.788;2023-06-24T14:28:12;25.40;88.40
15409;DHT22;7803;48.130;13.788;2023-06-24T14:31:16;25.50;88.70
15409;DHT22;7803;48.130;13.788;2023-06-24T14:34:18;25.50;88.70
15409;DHT22;7803;48.130;13.788;2023-06-24T14:37:20;25.40;88.80
15409;DHT22;7803;48.130;13.788;2023-06-24T14:40:22;25.40;88.80
15409;DHT22;7803;48.130;13.788;2023-06-24T14:43:24;25.40;88.90
15409;DHT22;7803;48.130;13.788;2023-06-24T14:46:27;25.40;88.90
15409;DHT22;7803;48.130;13.788;2023-06-24T14:49:29;25.40;88.60
15409;DHT22;7803;48.130;13.788;2023-06-24T14:52:32;25.40;88.40
15409;DHT22;7803;48.130;13.788;2023-06-24T14:55:33;25.50;88.60
15409;DHT22;7803;48.130;13.788;2023-06-24T14:58:35;25.40;88.60
15409;DHT22;7803;48.130;13.788;2023-06-24T15:01:39;25.40;88.40
15409;DHT22;7803;48.130;13.788;2023-06-24T15:04:41;25.50;88.20
15409;DHT22;7803;48.130;13.788;2023-06-24T15:07:43;25.40;88.10
15409;DHT22;7803;48.130;13.788;2023-06-24T15:10:45;25.40;88.40
15409;DHT22;7803;48.130;13.788;2023-06-24T15:13:47;25.40;88.40
15409;DHT22;7803;48.130;13.788;2023-06-24T15:16:51;25.40;88.00
15409;DHT22;7803;48.130;13.788;2023-06-24T15:19:55;25.40;88.00
15409;DHT22;7803;48.130;13.788;2023-06-24T15:22:57;25.40;88.10
15409;DHT22;7803;48.130;13.788;2023-06-24T15:25:59;25.40;87.70
15409;DHT22;7803;48.130;13.788;2023-06-24T15:29:01;25.40;88.10
15409;DHT22;7803;48.130;13.788;2023-06-24T15:32:05;25.40;87.90
15409;DHT22;7803;48.130;13.788;2023-06-24T15:35:08;25.40;88.40
15409;DHT22;7803;48.130;13.788;2023-06-24T15:38:10;25.40;88.80
15409;DHT22;7803;48.130;13.788;2023-06-24T15:41:12;25.40;88.60
15409;DHT22;7803;48.130;13.788;2023-06-24T15:44:14;25.40;87.70
15409;DHT22;7803;48.130;13.788;2023-06-24T15:47:18;25.40;87.40
15409;DHT22;7803;48.130;13.788;2023-06-24T15:50:20;25.50;87.50
15409;DHT22;7803;48.130;13.788;2023-06-24T15:53:21;25.40;87.40
15409;DHT22;7803;48.130;13.788;2023-06-24T15:56:23;25.40;86.90
15409;DHT22;7803;48.130;13.788;2023-06-24T15:59:26;25.40;86.80
15409;DHT22;7803;48.130;13.788;2023-06-24T16:02:29;25.40;87.10
15409;DHT22;7803;48.130;13.788;2023-06-24T16:05:31;25.40;87.30
15409;DHT22;7803;48.130;13.788;2023-06-24T16:08:33;25.40;86.90
15409;DHT22;7803;48.130;13.788;2023-06-24T16:11:35;25.40;86.00
15409;DHT22;7803;48.130;13.788;2023-06-24T16:14:37;25.40;85.10
15409;DHT22;7803;48.130;13.788;2023-06-24T16:17:40;25.40;84.80
15409;DHT22;7803;48.130;13.788;2023-06-24T16:20:42;25.40;84.90
15409;DHT22;7803;48.130;13.788;2023-06-24T16:23:45;25.40;84.50
15409;DHT22;7803;48.130;13.788;2023-06-24T16:26:47;25.50;84.20
15409;DHT22;7803;48.130;13.788;2023-06-24T16:29:49;25.40;83.90
15409;DHT22;7803;48.130;13.788;2023-06-24T16:32:52;25.40;84.20
15409;DHT22;7803;48.130;13.788;2023-06-24T16:35:54;25.40;84.70
15409;DHT22;7803;48.130;13.788;2023-06-24T16:38:56;25.40;85.00
15409;DHT22;7803;48.130;13.788;2023-06-24T16:41:58;25.40;84.50
15409;DHT22;7803;48.130;13.788;2023-06-24T16:45:00;25.40;84.00
15409;DHT22;7803;48.130;13.788;2023-06-24T16:48:04;25.40;83.90
15409;DHT22;7803;48.130;13.788;2023-06-24T16:51:06;25.40;83.90
15409;DHT22;7803;48.130;13.788;2023-06-24T16:54:08;25.40;84.20
15409;DHT22;7803;48.130;13.788;2023-06-24T16:57:10;25.30;84.10
15409;DHT22;7803;48.130;13.788;2023-06-24T17:00:13;25.40;84.20
15409;DHT22;7803;48.130;13.788;2023-06-24T17:03:16;25.40;84.40
15409;DHT22;7803;48.130;13.788;2023-06-24T17:06:18;25.40;84.80
15409;DHT22;7803;48.130;13.788;2023-06-24T17:09:20;25.40;86.20
15409;DHT22;7803;48.130;13.788;2023-06-24T17:12:22;25.40;86.20
15409;DHT22;7803;48.130;13.788;2023-06-24T17:15:24;25.40;86.70
15409;DHT22;7803;48.130;13.788;2023-06-24T17:18:28;25.40;87.00
15409;DHT22;7803;48.130;13.788;2023-06-24T17:21:30;25.50;87.30
15409;DHT22;7803;48.130;13.788;2023-06-24T17:24:32;25.50;87.30
15409;DHT22;7803;48.130;13.788;2023-06-24T17:27:34;25.50;87.20
15409;DHT22;7803;48.130;13.788;2023-06-24T17:30:36;25.50;87.30
15409;DHT22;7803;48.130;13.788;2023-06-24T17:33:41;25.50;89.90
15409;DHT22;7803;48.130;13.788;2023-06-24T17:36:43;25.50;91.50
15409;DHT22;7803;48.130;13.788;2023-06-24T17:39:45;25.50;90.70
15409;DHT22;7803;48.130;13.788;2023-06-24T17:42:47;25.50;90.80
15409;DHT22;7803;48.130;13.788;2023-06-24T17:45:49;25.60;91.30
15409;DHT22;7803;48.130;13.788;2023-06-24T17:48:52;25.60;91.60
15409;DHT22;7803;48.130;13.788;2023-06-24T17:51:54;25.60;91.40
15409;DHT22;7803;48.130;13.788;2023-06-24T17:54:56;25.60;91.70
15409;DHT22;7803;48.130;13.788;2023-06-24T17:57:58;25.60;92.00
15409;DHT22;7803;48.130;13.788;2023-06-24T18:01:00;25.60;91.10
15409;DHT22;7803;48.130;13.788;2023-06-24T18:04:04;25.60;90.70
15409;DHT22;7803;48.130;13.788;2023-06-24T18:07:06;25.60;92.20
15409;DHT22;7803;48.130;13.788;2023-06-24T18:10:09;25.70;99.90
15409;DHT22;7803;48.130;13.788;2023-06-24T18:13:11;25.70;99.90
15409;DHT22;7803;48.130;13.788;2023-06-24T18:16:13;25.70;99.90
15409;DHT22;7803;48.130;13.788;2023-06-24T18:19:17;25.80;99.90
15409;DHT22;7803;48.130;13.788;2023-06-24T18:22:19;25.90;99.90
15409;DHT22;7803;48.130;13.788;2023-06-24T18:25:21;25.80;95.70
15409;DHT22;7803;48.130;13.788;2023-06-24T18:28:23;26.00;91.60
15409;DHT22;7803;48.130;13.788;2023-06-24T18:31:25;26.10;90.40
15409;DHT22;7803;48.130;13.788;2023-06-24T18:34:29;26.10;88.80
15409;DHT22;7803;48.130;13.788;2023-06-24T18:37:31;26.20;89.00
15409;DHT22;7803;48.130;13.788;2023-06-24T18:40:33;26.50;89.40
15409;DHT22;7803;48.130;13.788;2023-06-24T18:43:35;26.80;85.30
15409;DHT22;7803;48.130;13.788;2023-06-24T18:46:37;26.90;82.80
15409;DHT22;7803;48.130;13.788;2023-06-24T18:49:40;27.00;85.50
15409;DHT22;7803;48.130;13.788;2023-06-24T18:52:42;27.00;88.70
15409;DHT22;7803;48.130;13.788;2023-06-24T18:55:44;26.90;84.60
15409;DHT22;7803;48.130;13.788;2023-06-24T18:58:46;26.90;82.40
15409;DHT22;7803;48.130;13.788;2023-06-24T19:01:48;26.80;82.00
15409;DHT22;7803;48.130;13.788;2023-06-24T19:04:52;26.70;82.20
15409;DHT22;7803;48.130;13.788;2023-06-24T19:07:54;26.50;82.50
15409;DHT22;7803;48.130;13.788;2023-06-24T19:10:56;26.50;82.60
15409;DHT22;7803;48.130;13.788;2023-06-24T19:13:58;26.40;83.10
15409;DHT22;7803;48.130;13.788;2023-06-24T19:17:00;26.30;83.60
15409;DHT22;7803;48.130;13.788;2023-06-24T19:20:03;26.30;83.50